createdAt,value
2019-06-07T00:01:37.773Z,46.77
2019-06-07T00:04:08.499Z,48.10
2019-06-07T00:06:36.515Z,45.17
2019-06-07T00:09:09.636Z,46.97
2019-06-07T00:11:37.226Z,48.37
2019-06-07T00:14:05.740Z,43.27
2019-06-07T00:16:34.239Z,45.47
2019-06-07T00:19:02.815Z,45.80
2019-06-07T00:22:12.967Z,47.47
2019-06-07T00:24:01.447Z,47.97
2019-06-07T00:26:29.901Z,48.50
2019-06-07T00:28:58.705Z,50.93
2019-06-07T00:31:27.156Z,50.33
2019-06-07T00:33:56.280Z,49.40
2019-06-07T00:36:24.957Z,50.37
2019-06-07T00:38:53.366Z,47.57
2019-06-07T00:41:22.335Z,47.67
2019-06-07T00:43:50.951Z,48.10
2019-06-07T00:46:21.637Z,48.37
2019-06-07T00:48:49.605Z,49.10
2019-06-07T00:51:19.612Z,46.60
2019-06-07T00:53:48.208Z,46.10
2019-06-07T00:56:18.757Z,46.00
2019-06-07T00:58:46.968Z,46.20
2019-06-07T01:01:18.495Z,50.00
2019-06-07T01:03:45.640Z,45.90
2019-06-07T01:06:15.014Z,50.90
2019-06-07T01:08:43.504Z,46.93
2019-06-07T01:11:13.487Z,46.70
2019-06-07T01:13:42.065Z,46.93
2019-06-07T01:16:10.523Z,49.03
2019-06-07T01:18:45.573Z,45.77
2019-06-07T01:21:09.139Z,47.60
2019-06-07T01:26:07.758Z,46.70
2019-06-07T01:28:36.257Z,46.90
2019-06-07T01:31:04.784Z,47.97
2019-06-07T01:33:50.389Z,46.07
2019-06-07T01:36:03.458Z,45.50
2019-06-07T01:38:31.885Z,49.73
2019-06-07T01:41:00.421Z,48.00
2019-06-07T01:43:31.024Z,46.00
2019-06-07T01:45:59.069Z,48.00
2019-06-07T01:48:46.170Z,44.80
2019-06-07T01:50:57.667Z,48.83
2019-06-07T01:53:28.454Z,48.33
2019-06-07T01:55:56.340Z,47.57
2019-06-07T01:58:28.780Z,47.10
2019-06-07T02:00:55.183Z,47.57
2019-06-07T02:03:26.952Z,51.80
2019-06-07T02:05:53.786Z,48.30
2019-06-07T02:08:23.973Z,46.97
2019-06-07T02:10:52.483Z,47.13
2019-06-07T02:13:21.307Z,47.33
2019-06-07T02:15:49.742Z,45.63
2019-06-07T02:18:21.829Z,45.57
2019-06-07T02:20:48.352Z,46.87
2019-06-07T02:23:16.815Z,50.63
2019-06-07T02:25:50.207Z,47.67
2019-06-07T02:28:32.002Z,45.80
2019-06-07T02:30:58.393Z,44.50
2019-06-07T02:33:15.866Z,46.07
2019-06-07T02:35:44.347Z,43.80
2019-06-07T02:38:12.802Z,47.90
2019-06-07T02:40:41.287Z,48.13
2019-06-07T02:43:09.739Z,44.70
2019-06-07T02:45:43.364Z,47.10
2019-06-07T02:48:08.420Z,45.67
2019-06-07T02:50:38.791Z,44.60
2019-06-07T02:53:07.124Z,45.53
2019-06-07T02:56:26.494Z,47.30
2019-06-07T02:58:05.803Z,44.60
2019-06-07T03:00:58.713Z,45.10
2019-06-07T03:03:07.655Z,48.20
2019-06-07T03:05:40.769Z,47.83
2019-06-07T03:08:08.739Z,45.17
2019-06-07T03:10:41.598Z,43.40
2019-06-07T03:13:08.152Z,44.47
2019-06-07T03:15:47.717Z,46.20
2019-06-07T03:18:12.523Z,45.33
2019-06-07T03:20:41.650Z,46.37
2019-06-07T03:23:10.079Z,47.60
2019-06-07T03:25:40.077Z,46.87
2019-06-07T03:28:08.678Z,46.70
2019-06-07T03:30:52.131Z,43.30
2019-06-07T03:33:07.446Z,49.43
2019-06-07T03:35:37.486Z,46.93
2019-06-07T03:38:06.323Z,46.40
2019-06-07T03:40:38.504Z,42.93
2019-06-07T03:43:04.953Z,44.90
2019-06-07T03:45:36.018Z,46.37
2019-06-07T03:48:03.581Z,46.67
2019-06-07T03:50:35.940Z,44.17
2019-06-07T03:53:02.192Z,46.47
2019-06-07T03:55:34.884Z,44.53
2019-06-07T03:58:30.818Z,50.03
2019-06-07T04:00:32.973Z,44.77
2019-06-07T04:03:01.166Z,44.77
2019-06-07T04:05:32.152Z,46.80
2019-06-07T04:07:59.767Z,45.30
2019-06-07T04:10:48.650Z,47.10
2019-06-07T04:12:58.368Z,49.43
2019-06-07T04:15:27.814Z,48.60
2019-06-07T04:18:01.819Z,49.80
2019-06-07T04:20:29.188Z,49.23
2019-06-07T04:22:57.011Z,44.13
2019-06-07T04:25:25.465Z,45.43
2019-06-07T04:27:53.900Z,47.80
2019-06-07T04:30:42.672Z,48.00
2019-06-07T04:33:12.220Z,45.20
2019-06-07T04:35:43.121Z,45.70
2019-06-07T04:38:12.339Z,47.93
2019-06-07T04:40:42.815Z,47.27
2019-06-07T04:43:12.541Z,44.37
2019-06-07T04:45:50.349Z,51.77
2019-06-07T04:48:11.222Z,48.60
2019-06-07T04:50:43.666Z,50.17
2019-06-07T04:53:10.999Z,47.07
2019-06-07T04:55:41.594Z,45.40
2019-06-07T04:58:09.678Z,51.27
2019-06-07T05:01:02.419Z,48.17
2019-06-07T05:03:08.538Z,47.97
2019-06-07T05:05:41.205Z,54.73
2019-06-07T05:08:17.788Z,45.17
2019-06-07T05:10:38.791Z,44.47
2019-06-07T05:13:07.753Z,46.10
2019-06-07T05:15:38.978Z,45.90
2019-06-07T05:18:06.360Z,48.93
2019-06-07T05:20:36.095Z,43.23
2019-06-07T05:23:05.046Z,47.83
2019-06-07T05:25:35.709Z,43.60
2019-06-07T05:28:03.901Z,43.07
2019-06-07T05:31:02.097Z,47.63
2019-06-07T05:33:06.456Z,43.70
2019-06-07T05:35:35.687Z,43.13
2019-06-07T05:38:05.855Z,47.20
2019-06-07T05:40:43.752Z,46.00
2019-06-07T05:43:23.474Z,42.67
2019-06-07T05:45:51.967Z,40.97
2019-06-07T05:48:20.412Z,41.97
2019-06-07T05:50:56.418Z,40.53
2019-06-07T05:53:19.023Z,40.20
2019-06-07T05:55:48.071Z,40.00
2019-06-07T05:58:16.592Z,41.90
2019-06-07T06:00:47.443Z,40.23
2019-06-07T06:03:15.346Z,40.00
2019-06-07T06:05:54.258Z,42.10
2019-06-07T06:08:14.017Z,40.03
2019-06-07T06:10:46.109Z,40.63
2019-06-07T06:13:12.680Z,40.37
2019-06-07T06:15:54.866Z,44.53
2019-06-07T06:18:11.737Z,53.93
2019-06-07T06:21:04.701Z,42.93
2019-06-07T06:23:10.408Z,44.17
2019-06-07T06:25:42.624Z,43.53
2019-06-07T06:28:12.027Z,42.97
2019-06-07T06:30:41.190Z,41.97
2019-06-07T06:33:27.076Z,43.23
2019-06-07T06:35:39.946Z,43.00
2019-06-07T06:38:08.548Z,43.60
2019-06-07T06:40:38.928Z,42.90
2019-06-07T06:43:07.230Z,41.90
2019-06-07T06:45:35.666Z,44.23
2019-06-07T06:48:04.285Z,45.13
2019-06-07T06:50:32.714Z,42.10
2019-06-07T06:53:01.160Z,41.13
2019-06-07T06:55:29.581Z,55.17
2019-06-07T06:57:58.033Z,43.53
2019-06-07T07:00:51.670Z,40.37
2019-06-07T07:05:49.468Z,40.80
2019-06-07T07:08:14.735Z,40.83
2019-06-07T07:10:46.024Z,40.40
2019-06-07T07:13:15.165Z,40.00
2019-06-07T07:15:46.847Z,43.20
2019-06-07T07:18:13.815Z,41.20
2019-06-07T07:20:43.983Z,39.70
2019-06-07T07:23:12.542Z,43.67
2019-06-07T07:25:43.534Z,40.40
2019-06-07T07:28:11.274Z,41.20
2019-06-07T07:30:56.416Z,41.77
2019-06-07T07:33:22.471Z,40.33
2019-06-07T07:36:15.780Z,39.30
2019-06-07T07:38:21.680Z,39.67
2019-06-07T07:41:13.328Z,41.77
2019-06-07T07:43:20.448Z,41.00
2019-06-07T07:45:53.104Z,39.50
2019-06-07T07:48:19.100Z,41.37
2019-06-07T07:50:51.015Z,45.60
2019-06-07T07:53:17.769Z,38.90
2019-06-07T07:55:51.559Z,43.57
2019-06-07T07:58:16.434Z,39.30
2019-06-07T08:01:00.703Z,42.87
2019-06-07T08:03:15.122Z,39.90
2019-06-07T08:05:45.725Z,39.27
2019-06-07T08:08:13.722Z,38.10
2019-06-07T08:10:42.247Z,38.97
2019-06-07T08:13:27.616Z,40.20
2019-06-07T08:15:40.913Z,40.27
2019-06-07T08:18:09.331Z,39.30
2019-06-07T08:20:37.776Z,39.03
2019-06-07T08:23:06.271Z,40.70
2019-06-07T08:25:34.862Z,38.43
2019-06-07T08:28:03.351Z,40.60
2019-06-07T08:30:52.114Z,40.13
2019-06-07T08:33:24.479Z,39.70
2019-06-07T08:40:32.670Z,37.97
2019-06-07T08:43:15.060Z,37.70
2019-06-07T08:45:31.336Z,42.27
2019-06-07T08:48:09.190Z,39.17
2019-06-07T08:50:30.171Z,38.80
2019-06-07T08:53:10.906Z,37.93
2019-06-07T08:55:28.843Z,38.60
2019-06-07T08:58:02.359Z,39.00
2019-06-07T09:00:46.953Z,38.63
2019-06-07T09:03:03.451Z,38.20
2019-06-07T09:05:28.398Z,41.77
2019-06-07T09:08:21.693Z,39.30
2019-06-07T09:10:27.369Z,40.33
2019-06-07T09:13:00.294Z,39.27
2019-06-07T09:15:25.964Z,38.80
2019-06-07T09:18:34.737Z,39.80
2019-06-07T09:20:36.259Z,39.73
2019-06-07T09:22:59.044Z,38.00
2019-06-07T09:25:24.218Z,39.47
2019-06-07T09:27:52.908Z,38.43
2019-06-07T09:30:41.871Z,39.87
2019-06-07T09:33:11.198Z,38.47
2019-06-07T09:35:40.124Z,37.07
2019-06-07T09:38:23.375Z,39.97
2019-06-07T09:40:38.795Z,39.17
2019-06-07T09:43:55.387Z,37.90
2019-06-07T09:45:37.574Z,37.80
2019-06-07T09:48:13.593Z,37.67
2019-06-07T09:50:36.262Z,37.63
2019-06-07T09:53:19.065Z,37.70
2019-06-07T09:55:35.154Z,37.60
2019-06-07T09:58:47.539Z,37.00
2019-06-07T10:00:40.590Z,37.63
2019-06-07T10:03:16.703Z,41.13
2019-06-07T10:05:34.502Z,37.43
2019-06-07T10:08:16.152Z,36.93
2019-06-07T10:13:01.841Z,37.80
2019-06-07T10:15:30.437Z,36.70
2019-06-07T10:17:58.959Z,37.43
2019-06-07T10:20:27.380Z,39.43
2019-06-07T10:22:55.851Z,37.23
2019-06-07T10:25:24.275Z,36.57
2019-06-07T10:27:52.805Z,40.10
2019-06-07T10:30:22.467Z,39.37
2019-06-07T10:32:52.291Z,36.37
2019-06-07T10:35:20.900Z,37.50
2019-06-07T10:37:49.348Z,36.70
2019-06-07T10:40:18.111Z,37.77
2019-06-07T10:42:46.555Z,36.40
2019-06-07T10:45:15.133Z,37.10
2019-06-07T10:47:43.584Z,39.67
2019-06-07T10:50:12.346Z,41.00
2019-06-07T10:52:40.797Z,36.77
2019-06-07T10:55:10.654Z,36.27
2019-06-07T10:57:39.065Z,36.53
2019-06-07T11:00:11.515Z,37.30
2019-06-07T11:02:40.039Z,37.90
2019-06-07T11:05:10.108Z,38.40
2019-06-07T11:07:38.845Z,37.60
2019-06-07T11:10:13.382Z,36.37
2019-06-07T11:12:37.911Z,36.77
2019-06-07T11:15:08.950Z,37.97
2019-06-07T11:17:37.448Z,37.83
2019-06-07T11:20:10.307Z,36.50
2019-06-07T11:22:39.043Z,37.37
2019-06-07T11:25:09.220Z,37.67
2019-06-07T11:27:38.457Z,38.10
2019-06-07T11:30:10.567Z,37.60
2019-06-07T11:32:39.451Z,38.10
2019-06-07T11:35:10.581Z,36.90
2019-06-07T11:37:39.300Z,36.53
2019-06-07T11:40:27.739Z,36.33
2019-06-07T11:42:40.485Z,37.23
2019-06-07T11:45:12.657Z,37.27
2019-06-07T11:47:40.659Z,37.10
2019-06-07T11:50:09.632Z,36.87
2019-06-07T11:52:38.709Z,35.90
2019-06-07T11:55:09.029Z,36.97
2019-06-07T11:57:37.786Z,35.80
2019-06-07T12:00:11.135Z,37.90
2019-06-07T12:02:40.020Z,37.10
2019-06-07T12:05:10.410Z,37.13
2019-06-07T12:07:38.953Z,36.17
2019-06-07T12:10:08.542Z,36.07
2019-06-07T12:12:37.214Z,35.73
2019-06-07T12:15:10.604Z,36.23
2019-06-07T12:17:39.582Z,36.77
2019-06-07T12:20:10.582Z,39.00
2019-06-07T12:22:38.801Z,36.70
2019-06-07T12:25:07.929Z,35.43
2019-06-07T12:27:36.349Z,36.17
2019-06-07T12:30:15.435Z,36.20
2019-06-07T12:32:39.510Z,36.20
2019-06-07T12:35:08.159Z,36.50
2019-06-07T12:37:43.608Z,41.30
2019-06-07T12:40:10.010Z,35.60
2019-06-07T12:42:38.613Z,36.00
2019-06-07T12:45:08.406Z,36.27
2019-06-07T12:47:36.930Z,36.67
2019-06-07T12:50:07.265Z,36.17
2019-06-07T12:52:35.750Z,39.17
2019-06-07T12:55:06.383Z,38.40
2019-06-07T12:57:34.900Z,37.57
2019-06-07T13:00:05.029Z,36.60
2019-06-07T13:02:33.477Z,36.67
2019-06-07T13:05:04.749Z,36.33
2019-06-07T13:07:32.128Z,37.00
2019-06-07T13:10:00.552Z,36.83
2019-06-07T13:12:29.001Z,36.33
2019-06-07T13:14:57.421Z,36.20
2019-06-07T13:17:25.880Z,36.40
2019-06-07T13:19:54.305Z,42.13
2019-06-07T13:22:22.752Z,37.60
2019-06-07T13:24:51.174Z,37.27
2019-06-07T13:27:20.387Z,37.40
2019-06-07T13:29:48.971Z,36.20
2019-06-07T13:32:17.522Z,36.10
2019-06-07T13:34:45.922Z,37.40
2019-06-07T13:37:14.373Z,37.40
2019-06-07T13:39:42.807Z,36.60
2019-06-07T13:42:11.326Z,35.67
2019-06-07T13:44:39.750Z,37.37
2019-06-07T13:47:08.204Z,36.17
2019-06-07T13:49:36.629Z,37.00
2019-06-07T13:52:05.142Z,36.83
2019-06-07T13:54:33.562Z,35.77
2019-06-07T13:57:03.252Z,36.90
2019-06-07T13:59:31.905Z,36.30
2019-06-07T14:02:00.330Z,35.33
2019-06-07T14:04:29.175Z,37.20
2019-06-07T14:06:57.684Z,35.50
2019-06-07T14:09:27.444Z,36.07
2019-06-07T14:11:56.131Z,37.83
2019-06-07T14:14:26.963Z,35.80
2019-06-07T14:16:54.872Z,35.47
2019-06-07T14:19:24.517Z,37.20
2019-06-07T14:21:53.018Z,35.37
2019-06-07T14:24:22.840Z,36.03
2019-06-07T14:27:06.227Z,37.30
2019-06-07T14:29:36.366Z,36.40
2019-06-07T14:32:06.818Z,37.30
2019-06-07T14:34:35.441Z,35.20
2019-06-07T14:37:04.539Z,35.43
2019-06-07T14:39:33.513Z,35.30
2019-06-07T14:42:09.038Z,37.63
2019-06-07T14:44:33.751Z,38.00
2019-06-07T14:47:02.615Z,35.27
2019-06-07T14:49:32.709Z,35.73
2019-06-07T14:52:01.371Z,35.53
2019-06-07T14:54:33.460Z,35.53
2019-06-07T14:57:03.062Z,35.27
2019-06-07T14:59:30.581Z,35.40
2019-06-07T15:01:59.534Z,35.40
2019-06-07T15:04:28.572Z,35.27
2019-06-07T15:06:57.097Z,36.73
2019-06-07T15:09:26.925Z,35.30
2019-06-07T15:11:55.815Z,35.23
2019-06-07T15:14:24.272Z,36.67
2019-06-07T15:16:52.711Z,34.43
2019-06-07T15:19:23.952Z,36.57
2019-06-07T15:21:51.293Z,37.40
2019-06-07T15:24:19.754Z,35.47
2019-06-07T15:26:48.180Z,35.37
2019-06-07T15:29:16.636Z,35.40
2019-06-07T15:31:45.126Z,35.20
2019-06-07T15:34:13.573Z,35.30
2019-06-07T15:36:42.070Z,35.77
2019-06-07T15:39:10.534Z,35.87
2019-06-07T15:41:39.697Z,35.80
2019-06-07T15:44:08.389Z,34.77
2019-06-07T15:46:37.933Z,38.03
2019-06-07T15:49:06.734Z,35.50
2019-06-07T15:51:36.528Z,37.30
2019-06-07T15:54:05.690Z,34.70
2019-06-07T15:56:34.684Z,34.57
2019-06-07T15:59:03.256Z,36.03
2019-06-07T16:01:33.355Z,35.30
2019-06-07T16:04:02.669Z,40.80
2019-06-07T16:06:32.097Z,36.17
2019-06-07T16:09:00.664Z,35.50
2019-06-07T16:11:29.866Z,37.97
2019-06-07T16:13:58.359Z,36.37
2019-06-07T16:16:26.812Z,34.60
2019-06-07T16:18:55.234Z,36.30
2019-06-07T16:21:23.695Z,35.10
2019-06-07T16:23:52.294Z,36.23
2019-06-07T16:26:20.748Z,35.70
2019-06-07T16:28:49.167Z,37.67
2019-06-07T16:31:17.628Z,35.53
2019-06-07T16:33:46.049Z,35.43
2019-06-07T16:36:14.501Z,36.97
2019-06-07T16:38:42.918Z,35.97
2019-06-07T16:41:11.435Z,36.47
2019-06-07T16:43:40.562Z,37.37
2019-06-07T16:46:09.168Z,36.20
2019-06-07T16:48:38.723Z,35.77
2019-06-07T16:51:07.298Z,35.23
2019-06-07T16:53:36.150Z,35.57
2019-06-07T16:56:05.685Z,37.30
2019-06-07T16:58:34.096Z,42.63
2019-06-07T17:01:02.643Z,36.30
2019-06-07T17:03:31.043Z,36.90
2019-06-07T17:05:59.493Z,35.40
2019-06-07T17:08:27.915Z,36.20
2019-06-07T17:10:56.367Z,35.77
2019-06-07T17:13:33.276Z,35.67
2019-06-07T17:15:54.995Z,35.80
2019-06-07T17:18:23.474Z,36.30
2019-06-07T17:20:51.928Z,36.50
2019-06-07T17:23:20.349Z,36.70
2019-06-07T17:25:49.791Z,38.23
2019-06-07T17:28:18.340Z,38.07
2019-06-07T17:30:48.170Z,37.37
2019-06-07T17:33:16.832Z,35.87
2019-06-07T17:35:46.485Z,37.80
2019-06-07T17:38:15.091Z,35.27
2019-06-07T17:40:44.861Z,35.57
2019-06-07T17:43:13.440Z,34.30
2019-06-07T17:45:43.341Z,35.00
2019-06-07T17:48:12.171Z,33.47
2019-06-07T17:50:41.661Z,34.90
2019-06-07T17:53:10.204Z,33.57
2019-06-07T17:55:38.703Z,33.90
2019-06-07T17:58:07.154Z,33.00
2019-06-07T18:00:48.807Z,33.10
2019-06-07T18:03:17.847Z,35.00
2019-06-07T18:05:49.158Z,33.73
2019-06-07T18:08:17.740Z,34.47
2019-06-07T18:10:47.731Z,35.07
2019-06-07T18:13:16.499Z,33.93
2019-06-07T18:15:51.701Z,34.70
2019-06-07T18:18:17.507Z,36.00
2019-06-07T18:20:47.207Z,34.63
2019-06-07T18:23:15.909Z,36.20
2019-06-07T18:25:44.482Z,37.00
2019-06-07T18:28:13.206Z,38.07
2019-06-07T18:30:41.774Z,37.63
2019-06-07T18:33:10.226Z,38.20
2019-06-07T18:35:38.644Z,40.03
2019-06-07T18:38:10.554Z,41.70
2019-06-07T18:40:37.378Z,42.13
2019-06-07T18:43:05.905Z,41.60
2019-06-07T18:45:34.329Z,43.50
2019-06-07T18:48:02.782Z,42.60
2019-06-07T18:50:31.273Z,42.80
2019-06-07T18:52:59.727Z,44.47
2019-06-07T18:55:28.283Z,42.87
2019-06-07T18:57:56.736Z,44.00
2019-06-07T19:00:25.899Z,44.30
2019-06-07T19:02:54.351Z,43.20
2019-06-07T19:05:22.843Z,45.60
2019-06-07T19:07:52.522Z,45.87
2019-06-07T19:10:21.333Z,44.97
2019-06-07T19:12:50.939Z,44.97
2019-06-07T19:15:20.051Z,44.07
2019-06-07T19:17:49.633Z,44.60
2019-06-07T19:20:18.740Z,44.40
2019-06-07T19:22:47.307Z,44.07
2019-06-07T19:25:16.212Z,46.93
2019-06-07T19:27:44.677Z,45.53
2019-06-07T19:30:14.268Z,43.30
2019-06-07T19:32:42.775Z,45.60
2019-06-07T19:35:11.455Z,45.37
2019-06-07T19:37:39.880Z,45.37
2019-06-07T19:40:08.681Z,44.07
2019-06-07T19:42:37.088Z,49.23
2019-06-07T19:45:28.848Z,48.33
2019-06-07T19:47:39.275Z,44.60
2019-06-07T19:50:08.197Z,44.90
2019-06-07T19:52:36.695Z,43.60
2019-06-07T19:55:09.867Z,44.47
2019-06-07T19:57:38.315Z,45.50
2019-06-07T20:00:14.089Z,46.27
2019-06-07T20:02:37.943Z,42.97
2019-06-07T20:05:07.332Z,44.03
2019-06-07T20:07:35.748Z,44.90
2019-06-07T20:10:07.989Z,44.57
2019-06-07T20:12:36.483Z,44.27
2019-06-07T20:15:27.285Z,45.67
2019-06-07T20:17:38.196Z,43.13
2019-06-07T20:20:08.944Z,43.37
2019-06-07T20:22:37.551Z,45.20
2019-06-07T20:25:06.441Z,43.80
2019-06-07T20:27:34.935Z,46.07
2019-06-07T20:30:05.248Z,43.60
2019-06-07T20:32:33.675Z,44.27
2019-06-07T20:35:02.160Z,46.37
2019-06-07T20:37:30.644Z,44.10
2019-06-07T20:40:11.358Z,43.43
2019-06-07T20:42:29.245Z,44.13
2019-06-07T20:44:57.664Z,44.70
2019-06-07T20:47:26.116Z,44.00
2019-06-07T20:49:54.544Z,44.70
2019-06-07T20:52:22.985Z,44.30
2019-06-07T20:54:51.406Z,44.97
2019-06-07T20:57:19.880Z,44.87
2019-06-07T20:59:48.293Z,46.30
2019-06-07T21:02:16.732Z,47.17
2019-06-07T21:04:45.158Z,44.73
2019-06-07T21:07:13.605Z,46.13
2019-06-07T21:09:42.026Z,45.90
2019-06-07T21:12:10.477Z,47.13
2019-06-07T21:14:38.904Z,45.10
2019-06-07T21:17:08.254Z,48.90
2019-06-07T21:19:36.852Z,44.60
2019-06-07T21:22:06.676Z,48.53
2019-06-07T21:24:35.291Z,47.80
2019-06-07T21:27:05.246Z,45.73
2019-06-07T21:29:33.910Z,51.63
2019-06-07T21:32:03.364Z,44.27
2019-06-07T21:34:31.934Z,47.23
2019-06-07T21:37:01.700Z,44.97
2019-06-07T21:39:30.285Z,49.57
2019-06-07T21:41:58.736Z,45.57
2019-06-07T21:44:27.173Z,45.40
2019-06-07T21:46:55.602Z,46.00
2019-06-07T21:49:24.023Z,44.17
2019-06-07T21:51:52.460Z,49.80
2019-06-07T21:54:20.907Z,47.10
2019-06-07T21:56:49.344Z,48.83
2019-06-07T21:59:17.793Z,48.97
2019-06-07T22:01:46.359Z,45.70
2019-06-07T22:04:14.797Z,45.87
2019-06-07T22:06:43.219Z,47.37
2019-06-07T22:09:12.375Z,45.17
2019-06-07T22:11:40.985Z,47.43
2019-06-07T22:14:10.430Z,45.70
2019-06-07T22:16:38.943Z,44.97
2019-06-07T22:19:08.679Z,50.40
2019-06-07T22:21:38.910Z,48.20
2019-06-07T22:24:08.798Z,44.73
2019-06-07T22:26:37.363Z,45.00
2019-06-07T22:29:06.284Z,48.67
2019-06-07T22:31:34.912Z,44.90
2019-06-07T22:34:03.705Z,51.80
2019-06-07T22:36:32.362Z,51.80
2019-06-07T22:39:00.894Z,55.43
2019-06-07T22:41:29.302Z,55.23
2019-06-07T22:43:57.773Z,49.93
2019-06-07T22:46:36.859Z,51.60
2019-06-07T22:48:56.369Z,47.30
2019-06-07T22:51:24.927Z,51.57
2019-06-07T22:53:53.370Z,50.13
2019-06-07T22:56:38.328Z,48.67
2019-06-07T22:59:07.960Z,46.80
2019-06-07T23:01:36.891Z,48.77
2019-06-07T23:04:05.349Z,47.80
2019-06-07T23:06:33.852Z,46.53
2019-06-07T23:09:02.299Z,46.30
2019-06-07T23:11:30.737Z,45.70
2019-06-07T23:13:59.187Z,47.27
2019-06-07T23:16:27.619Z,45.50
2019-06-07T23:18:56.130Z,47.00
2019-06-07T23:21:24.648Z,47.10
2019-06-07T23:23:53.267Z,42.80
2019-06-07T23:26:21.695Z,44.77
2019-06-07T23:28:50.224Z,46.57
2019-06-07T23:31:18.652Z,48.73
2019-06-07T23:33:47.095Z,45.37
2019-06-07T23:36:17.104Z,46.70
2019-06-07T23:38:45.761Z,47.07
2019-06-07T23:41:15.516Z,45.43
2019-06-07T23:43:44.017Z,44.77
2019-06-07T23:46:13.405Z,45.67
2019-06-07T23:48:41.979Z,45.97
2019-06-07T23:51:11.501Z,46.13
2019-06-07T23:53:40.141Z,45.20
2019-06-07T23:56:08.638Z,44.93
2019-06-07T23:58:37.096Z,44.83
